Terminal Aerodrome Forecast
Issued by NWS Cleveland, OH

Home | Current Version | Previous Version | Graphics & Text | Print | Product List | Glossary On
Versions: 1 2 3 4 5 6 7 8 9 10 11 12 13 14 15 16 17 18 19 20
000
FTUS41 KCLE 251700
TAFMFD
TAF
KMFD 251724Z 2518/2618 24018G28KT P6SM SCT025 BKN040
      TEMPO 2518/2522 BKN025
     FM260000 25006KT P6SM SCT030 BKN200
     FM260900 02003KT 4SM -RA BR BKN040 OVC100
     FM261100 36006KT 3SM -RA BR BKN006 OVC020=

USA.gov is the U.S. government's official web portal to all federal, state and local government web resources and services.